sensor_id;sensor_type;location;lat;lon;timestamp;P1;durP1;ratioP1;P2;durP2;ratioP2
1328;SDS011;658;48.820;9.354;2023-03-31T00:00:20;0.90;;;0.90;;
1328;SDS011;658;48.820;9.354;2023-03-31T00:04:21;1.27;;;0.90;;
1328;SDS011;658;48.820;9.354;2023-03-31T00:08:23;0.67;;;0.67;;
1328;SDS011;658;48.820;9.354;2023-03-31T00:12:24;0.90;;;0.90;;
1328;SDS011;658;48.820;9.354;2023-03-31T00:16:25;0.80;;;0.70;;
1328;SDS011;658;48.820;9.354;2023-03-31T00:20:26;1.00;;;0.70;;
1328;SDS011;658;48.820;9.354;2023-03-31T00:24:30;1.70;;;0.80;;
1328;SDS011;658;48.820;9.354;2023-03-31T00:28:31;1.03;;;0.70;;
1328;SDS011;658;48.820;9.354;2023-03-31T00:32:32;0.77;;;0.77;;
1328;SDS011;658;48.820;9.354;2023-03-31T00:36:35;0.70;;;0.70;;
1328;SDS011;658;48.820;9.354;2023-03-31T00:40:44;0.60;;;0.60;;
1328;SDS011;658;48.820;9.354;2023-03-31T00:49:25;0.60;;;0.60;;
1328;SDS011;658;48.820;9.354;2023-03-31T00:53:29;1.00;;;0.60;;
1328;SDS011;658;48.820;9.354;2023-03-31T00:57:32;0.87;;;0.80;;
1328;SDS011;658;48.820;9.354;2023-03-31T01:01:36;0.90;;;0.90;;
1328;SDS011;658;48.820;9.354;2023-03-31T01:05:42;0.70;;;0.70;;
1328;SDS011;658;48.820;9.354;2023-03-31T01:09:49;0.70;;;0.67;;
1328;SDS011;658;48.820;9.354;2023-03-31T01:13:54;1.00;;;0.70;;
1328;SDS011;658;48.820;9.354;2023-03-31T01:17:58;0.97;;;0.70;;
1328;SDS011;658;48.820;9.354;2023-03-31T01:22:05;1.43;;;0.73;;
1328;SDS011;658;48.820;9.354;2023-03-31T01:35:09;0.87;;;0.60;;
1328;SDS011;658;48.820;9.354;2023-03-31T01:39:23;1.37;;;0.80;;
1328;SDS011;658;48.820;9.354;2023-03-31T01:57:22;0.60;;;0.60;;
1328;SDS011;658;48.820;9.354;2023-03-31T02:01:48;0.80;;;0.77;;
1328;SDS011;658;48.820;9.354;2023-03-31T02:05:56;0.80;;;0.60;;
1328;SDS011;658;48.820;9.354;2023-03-31T02:10:02;2.47;;;1.00;;
1328;SDS011;658;48.820;9.354;2023-03-31T02:14:07;1.00;;;0.70;;
1328;SDS011;658;48.820;9.354;2023-03-31T02:18:11;0.83;;;0.77;;
1328;SDS011;658;48.820;9.354;2023-03-31T02:22:17;0.90;;;0.80;;
1328;SDS011;658;48.820;9.354;2023-03-31T02:26:23;0.80;;;0.80;;
1328;SDS011;658;48.820;9.354;2023-03-31T02:30:38;1.23;;;0.70;;
1328;SDS011;658;48.820;9.354;2023-03-31T02:35:02;0.93;;;0.80;;
1328;SDS011;658;48.820;9.354;2023-03-31T02:39:04;1.27;;;1.17;;
1328;SDS011;658;48.820;9.354;2023-03-31T02:43:10;0.80;;;0.80;;
1328;SDS011;658;48.820;9.354;2023-03-31T02:47:12;0.87;;;0.70;;
1328;SDS011;658;48.820;9.354;2023-03-31T02:51:37;1.60;;;1.00;;
1328;SDS011;658;48.820;9.354;2023-03-31T02:55:52;0.70;;;0.70;;
1328;SDS011;658;48.820;9.354;2023-03-31T03:00:13;0.70;;;0.70;;
1328;SDS011;658;48.820;9.354;2023-03-31T03:12:51;0.70;;;0.63;;
1328;SDS011;658;48.820;9.354;2023-03-31T03:16:57;1.00;;;0.90;;
1328;SDS011;658;48.820;9.354;2023-03-31T03:21:11;0.70;;;0.70;;
1328;SDS011;658;48.820;9.354;2023-03-31T03:25:12;0.70;;;0.70;;
1328;SDS011;658;48.820;9.354;2023-03-31T03:29:16;1.03;;;0.70;;
1328;SDS011;658;48.820;9.354;2023-03-31T03:33:18;1.03;;;1.00;;
1328;SDS011;658;48.820;9.354;2023-03-31T03:37:23;0.70;;;0.70;;
1328;SDS011;658;48.820;9.354;2023-03-31T03:41:24;1.27;;;0.70;;
1328;SDS011;658;48.820;9.354;2023-03-31T03:45:25;1.03;;;0.70;;
1328;SDS011;658;48.820;9.354;2023-03-31T03:49:25;0.80;;;0.80;;
1328;SDS011;658;48.820;9.354;2023-03-31T03:53:26;0.77;;;0.70;;
1328;SDS011;658;48.820;9.354;2023-03-31T03:57:27;0.60;;;0.60;;
1328;SDS011;658;48.820;9.354;2023-03-31T04:01:27;1.13;;;0.77;;
1328;SDS011;658;48.820;9.354;2023-03-31T04:05:28;0.87;;;0.63;;
1328;SDS011;658;48.820;9.354;2023-03-31T04:09:28;0.90;;;0.83;;
1328;SDS011;658;48.820;9.354;2023-03-31T04:13:31;1.23;;;0.80;;
1328;SDS011;658;48.820;9.354;2023-03-31T04:17:34;0.60;;;0.60;;
1328;SDS011;658;48.820;9.354;2023-03-31T04:21:36;0.80;;;0.80;;
1328;SDS011;658;48.820;9.354;2023-03-31T04:25:43;0.90;;;0.83;;
1328;SDS011;658;48.820;9.354;2023-03-31T04:29:45;1.53;;;0.80;;
1328;SDS011;658;48.820;9.354;2023-03-31T04:33:53;0.70;;;0.70;;
1328;SDS011;658;48.820;9.354;2023-03-31T04:37:54;0.70;;;0.70;;
1328;SDS011;658;48.820;9.354;2023-03-31T04:41:58;1.27;;;1.00;;
1328;SDS011;658;48.820;9.354;2023-03-31T04:45:59;1.00;;;1.00;;
1328;SDS011;658;48.820;9.354;2023-03-31T04:50:00;0.70;;;0.70;;
1328;SDS011;658;48.820;9.354;2023-03-31T04:54:00;0.70;;;0.70;;
1328;SDS011;658;48.820;9.354;2023-03-31T04:58:01;1.10;;;1.00;;
1328;SDS011;658;48.820;9.354;2023-03-31T05:02:02;1.23;;;0.73;;
1328;SDS011;658;48.820;9.354;2023-03-31T05:06:02;1.53;;;0.83;;
1328;SDS011;658;48.820;9.354;2023-03-31T05:10:04;0.80;;;0.80;;
1328;SDS011;658;48.820;9.354;2023-03-31T05:14:05;0.80;;;0.80;;
1328;SDS011;658;48.820;9.354;2023-03-31T05:18:08;1.40;;;0.90;;
1328;SDS011;658;48.820;9.354;2023-03-31T05:22:08;0.83;;;0.70;;
1328;SDS011;658;48.820;9.354;2023-03-31T05:26:09;0.80;;;0.80;;
1328;SDS011;658;48.820;9.354;2023-03-31T05:30:10;0.70;;;0.70;;
1328;SDS011;658;48.820;9.354;2023-03-31T05:34:12;0.80;;;0.80;;
1328;SDS011;658;48.820;9.354;2023-03-31T05:38:13;1.10;;;1.00;;
1328;SDS011;658;48.820;9.354;2023-03-31T05:42:13;1.17;;;0.77;;
1328;SDS011;658;48.820;9.354;2023-03-31T05:46:14;1.00;;;0.90;;
1328;SDS011;658;48.820;9.354;2023-03-31T05:50:17;0.90;;;0.90;;
1328;SDS011;658;48.820;9.354;2023-03-31T05:54:18;0.60;;;0.60;;
1328;SDS011;658;48.820;9.354;2023-03-31T05:58:18;1.00;;;1.00;;
1328;SDS011;658;48.820;9.354;2023-03-31T06:02:19;1.03;;;0.93;;
1328;SDS011;658;48.820;9.354;2023-03-31T06:06:19;1.13;;;0.70;;
1328;SDS011;658;48.820;9.354;2023-03-31T06:10:21;1.10;;;1.00;;
1328;SDS011;658;48.820;9.354;2023-03-31T06:14:24;1.20;;;1.10;;
1328;SDS011;658;48.820;9.354;2023-03-31T06:18:26;1.03;;;0.90;;
1328;SDS011;658;48.820;9.354;2023-03-31T06:22:28;1.27;;;1.17;;
1328;SDS011;658;48.820;9.354;2023-03-31T06:26:29;0.83;;;0.83;;
1328;SDS011;658;48.820;9.354;2023-03-31T06:30:29;1.63;;;0.90;;
1328;SDS011;658;48.820;9.354;2023-03-31T06:34:30;1.67;;;1.10;;
1328;SDS011;658;48.820;9.354;2023-03-31T06:38:33;1.47;;;1.20;;
1328;SDS011;658;48.820;9.354;2023-03-31T06:42:35;1.80;;;1.33;;
1328;SDS011;658;48.820;9.354;2023-03-31T06:46:36;1.40;;;1.30;;
1328;SDS011;658;48.820;9.354;2023-03-31T06:50:37;1.77;;;1.50;;
1328;SDS011;658;48.820;9.354;2023-03-31T06:54:38;1.17;;;1.07;;
1328;SDS011;658;48.820;9.354;2023-03-31T06:58:38;1.53;;;1.33;;
1328;SDS011;658;48.820;9.354;2023-03-31T07:02:39;1.87;;;1.67;;
1328;SDS011;658;48.820;9.354;2023-03-31T07:06:42;1.20;;;1.10;;
1328;SDS011;658;48.820;9.354;2023-03-31T07:10:43;1.37;;;1.20;;
1328;SDS011;658;48.820;9.354;2023-03-31T07:14:47;5.33;;;1.40;;
1328;SDS011;658;48.820;9.354;2023-03-31T07:18:50;2.30;;;1.43;;
1328;SDS011;658;48.820;9.354;2023-03-31T07:22:53;2.57;;;1.60;;
1328;SDS011;658;48.820;9.354;2023-03-31T07:26:54;2.70;;;1.40;;
1328;SDS011;658;48.820;9.354;2023-03-31T07:30:55;1.50;;;1.40;;
1328;SDS011;658;48.820;9.354;2023-03-31T07:34:55;1.90;;;1.80;;
1328;SDS011;658;48.820;9.354;2023-03-31T07:38:56;2.23;;;1.63;;
1328;SDS011;658;48.820;9.354;2023-03-31T07:42:56;1.80;;;1.70;;
1328;SDS011;658;48.820;9.354;2023-03-31T07:46:57;2.80;;;1.50;;
1328;SDS011;658;48.820;9.354;2023-03-31T07:51:00;6.80;;;1.93;;
1328;SDS011;658;48.820;9.354;2023-03-31T07:55:00;1.47;;;1.37;;
1328;SDS011;658;48.820;9.354;2023-03-31T07:59:02;1.83;;;1.73;;
1328;SDS011;658;48.820;9.354;2023-03-31T08:03:03;1.47;;;1.33;;
1328;SDS011;658;48.820;9.354;2023-03-31T08:07:03;1.97;;;1.47;;
1328;SDS011;658;48.820;9.354;2023-03-31T08:11:06;1.50;;;1.40;;
1328;SDS011;658;48.820;9.354;2023-03-31T08:15:07;3.70;;;1.80;;
1328;SDS011;658;48.820;9.354;2023-03-31T08:19:08;2.50;;;1.17;;
1328;SDS011;658;48.820;9.354;2023-03-31T08:23:09;1.90;;;1.43;;
1328;SDS011;658;48.820;9.354;2023-03-31T08:27:11;1.60;;;1.50;;
1328;SDS011;658;48.820;9.354;2023-03-31T08:31:11;1.53;;;1.30;;
1328;SDS011;658;48.820;9.354;2023-03-31T08:35:15;1.40;;;1.30;;
1328;SDS011;658;48.820;9.354;2023-03-31T08:39:15;1.77;;;1.30;;
1328;SDS011;658;48.820;9.354;2023-03-31T08:43:19;1.47;;;1.37;;
1328;SDS011;658;48.820;9.354;2023-03-31T08:47:26;1.40;;;1.30;;
1328;SDS011;658;48.820;9.354;2023-03-31T08:51:34;1.50;;;1.40;;
1328;SDS011;658;48.820;9.354;2023-03-31T08:55:45;1.90;;;1.40;;
1328;SDS011;658;48.820;9.354;2023-03-31T08:59:51;2.07;;;1.30;;
1328;SDS011;658;48.820;9.354;2023-03-31T09:12:48;1.37;;;1.27;;
1328;SDS011;658;48.820;9.354;2023-03-31T09:17:17;1.90;;;1.10;;
1328;SDS011;658;48.820;9.354;2023-03-31T09:21:27;1.60;;;1.50;;
1328;SDS011;658;48.820;9.354;2023-03-31T09:25:33;1.47;;;1.33;;
1328;SDS011;658;48.820;9.354;2023-03-31T09:33:44;1.37;;;1.27;;
1328;SDS011;658;48.820;9.354;2023-03-31T09:37:46;2.30;;;1.43;;
1328;SDS011;658;48.820;9.354;2023-03-31T09:41:48;1.67;;;1.10;;
1328;SDS011;658;48.820;9.354;2023-03-31T09:45:50;1.47;;;1.10;;
1328;SDS011;658;48.820;9.354;2023-03-31T09:49:51;1.77;;;1.13;;
1328;SDS011;658;48.820;9.354;2023-03-31T09:53:57;1.50;;;1.27;;
1328;SDS011;658;48.820;9.354;2023-03-31T09:58:06;2.13;;;1.20;;
1328;SDS011;658;48.820;9.354;2023-03-31T10:02:24;1.27;;;1.10;;
1328;SDS011;658;48.820;9.354;2023-03-31T10:06:39;2.33;;;1.00;;
1328;SDS011;658;48.820;9.354;2023-03-31T10:10:45;3.37;;;1.60;;
1328;SDS011;658;48.820;9.354;2023-03-31T10:14:54;1.83;;;1.27;;
1328;SDS011;658;48.820;9.354;2023-03-31T10:19:21;4.10;;;1.00;;
1328;SDS011;658;48.820;9.354;2023-03-31T10:23:29;0.80;;;0.80;;
1328;SDS011;658;48.820;9.354;2023-03-31T10:27:33;0.93;;;0.90;;
1328;SDS011;658;48.820;9.354;2023-03-31T10:31:35;1.10;;;0.90;;
1328;SDS011;658;48.820;9.354;2023-03-31T10:35:36;0.80;;;0.80;;
1328;SDS011;658;48.820;9.354;2023-03-31T10:39:37;0.90;;;0.80;;
1328;SDS011;658;48.820;9.354;2023-03-31T10:47:42;1.30;;;1.07;;
1328;SDS011;658;48.820;9.354;2023-03-31T10:51:51;0.87;;;0.80;;
1328;SDS011;658;48.820;9.354;2023-03-31T11:00:40;0.77;;;0.70;;
1328;SDS011;658;48.820;9.354;2023-03-31T11:26:08;1.03;;;0.80;;
1328;SDS011;658;48.820;9.354;2023-03-31T11:34:36;1.13;;;0.90;;
1328;SDS011;658;48.820;9.354;2023-03-31T11:38:58;0.83;;;0.80;;
1328;SDS011;658;48.820;9.354;2023-03-31T11:43:54;0.70;;;0.70;;
1328;SDS011;658;48.820;9.354;2023-03-31T11:47:41;0.77;;;0.77;;
1328;SDS011;658;48.820;9.354;2023-03-31T11:51:47;1.10;;;1.00;;
1328;SDS011;658;48.820;9.354;2023-03-31T11:55:58;1.30;;;1.10;;
1328;SDS011;658;48.820;9.354;2023-03-31T12:00:11;1.30;;;1.00;;
1328;SDS011;658;48.820;9.354;2023-03-31T12:12:51;1.23;;;0.90;;
1328;SDS011;658;48.820;9.354;2023-03-31T12:17:09;0.73;;;0.70;;
1328;SDS011;658;48.820;9.354;2023-03-31T12:21:16;1.00;;;0.90;;
1328;SDS011;658;48.820;9.354;2023-03-31T12:25:20;0.90;;;0.90;;
1328;SDS011;658;48.820;9.354;2023-03-31T12:33:33;1.17;;;0.70;;
1328;SDS011;658;48.820;9.354;2023-03-31T12:50:53;1.10;;;0.80;;
1328;SDS011;658;48.820;9.354;2023-03-31T12:55:22;1.27;;;0.90;;
1328;SDS011;658;48.820;9.354;2023-03-31T12:59:37;1.57;;;0.70;;
1328;SDS011;658;48.820;9.354;2023-03-31T13:07:41;1.07;;;0.97;;
1328;SDS011;658;48.820;9.354;2023-03-31T13:11:44;1.00;;;0.73;;
1328;SDS011;658;48.820;9.354;2023-03-31T13:15:51;1.17;;;0.70;;
1328;SDS011;658;48.820;9.354;2023-03-31T13:19:55;1.00;;;0.80;;
1328;SDS011;658;48.820;9.354;2023-03-31T13:24:14;1.20;;;0.80;;
1328;SDS011;658;48.820;9.354;2023-03-31T13:32:24;4.80;;;0.90;;
1328;SDS011;658;48.820;9.354;2023-03-31T13:44:55;2.57;;;1.00;;
1328;SDS011;658;48.820;9.354;2023-03-31T14:07:01;1.80;;;1.13;;
1328;SDS011;658;48.820;9.354;2023-03-31T14:11:26;2.07;;;0.87;;
1328;SDS011;658;48.820;9.354;2023-03-31T14:15:30;2.83;;;0.80;;
1328;SDS011;658;48.820;9.354;2023-03-31T14:32:26;1.80;;;0.70;;
1328;SDS011;658;48.820;9.354;2023-03-31T14:40:56;0.53;;;0.53;;
1328;SDS011;658;48.820;9.354;2023-03-31T14:45:04;1.33;;;0.80;;
1328;SDS011;658;48.820;9.354;2023-03-31T14:49:36;0.70;;;0.60;;
1328;SDS011;658;48.820;9.354;2023-03-31T14:53:37;0.70;;;0.60;;
1328;SDS011;658;48.820;9.354;2023-03-31T14:57:38;0.93;;;0.70;;
1328;SDS011;658;48.820;9.354;2023-03-31T15:01:41;1.07;;;0.70;;
1328;SDS011;658;48.820;9.354;2023-03-31T15:05:46;0.90;;;0.60;;
1328;SDS011;658;48.820;9.354;2023-03-31T15:09:48;0.77;;;0.50;;
1328;SDS011;658;48.820;9.354;2023-03-31T15:13:50;0.83;;;0.40;;
1328;SDS011;658;48.820;9.354;2023-03-31T15:17:52;1.00;;;0.90;;
1328;SDS011;658;48.820;9.354;2023-03-31T15:26:17;0.47;;;0.47;;
1328;SDS011;658;48.820;9.354;2023-03-31T15:30:22;0.60;;;0.60;;
1328;SDS011;658;48.820;9.354;2023-03-31T15:34:26;0.70;;;0.40;;
1328;SDS011;658;48.820;9.354;2023-03-31T15:38:32;1.43;;;0.80;;
1328;SDS011;658;48.820;9.354;2023-03-31T15:42:33;1.30;;;0.70;;
1328;SDS011;658;48.820;9.354;2023-03-31T15:50:39;0.70;;;0.50;;
1328;SDS011;658;48.820;9.354;2023-03-31T15:54:42;1.03;;;0.63;;
1328;SDS011;658;48.820;9.354;2023-03-31T16:02:52;1.07;;;0.50;;
1328;SDS011;658;48.820;9.354;2023-03-31T16:07:02;1.00;;;0.50;;
1328;SDS011;658;48.820;9.354;2023-03-31T16:11:08;0.47;;;0.40;;
1328;SDS011;658;48.820;9.354;2023-03-31T16:15:13;2.30;;;0.40;;
1328;SDS011;658;48.820;9.354;2023-03-31T16:19:17;0.87;;;0.40;;
1328;SDS011;658;48.820;9.354;2023-03-31T16:23:19;0.50;;;0.40;;
1328;SDS011;658;48.820;9.354;2023-03-31T16:27:23;2.73;;;0.83;;
1328;SDS011;658;48.820;9.354;2023-03-31T16:31:37;1.17;;;0.50;;
1328;SDS011;658;48.820;9.354;2023-03-31T16:35:43;0.73;;;0.50;;
1328;SDS011;658;48.820;9.354;2023-03-31T16:39:50;0.67;;;0.50;;
1328;SDS011;658;48.820;9.354;2023-03-31T16:43:50;0.93;;;0.50;;
1328;SDS011;658;48.820;9.354;2023-03-31T16:47:52;1.23;;;0.67;;
1328;SDS011;658;48.820;9.354;2023-03-31T16:51:55;1.43;;;0.50;;
1328;SDS011;658;48.820;9.354;2023-03-31T16:55:56;0.70;;;0.67;;
1328;SDS011;658;48.820;9.354;2023-03-31T16:59:59;0.40;;;0.40;;
1328;SDS011;658;48.820;9.354;2023-03-31T17:04:00;0.63;;;0.50;;
1328;SDS011;658;48.820;9.354;2023-03-31T17:08:01;0.83;;;0.47;;
1328;SDS011;658;48.820;9.354;2023-03-31T17:12:01;2.73;;;0.50;;
1328;SDS011;658;48.820;9.354;2023-03-31T17:16:02;0.90;;;0.30;;
1328;SDS011;658;48.820;9.354;2023-03-31T17:20:04;0.90;;;0.50;;
1328;SDS011;658;48.820;9.354;2023-03-31T17:24:09;0.67;;;0.43;;
1328;SDS011;658;48.820;9.354;2023-03-31T17:28:10;0.50;;;0.40;;
1328;SDS011;658;48.820;9.354;2023-03-31T17:32:10;1.13;;;0.40;;
1328;SDS011;658;48.820;9.354;2023-03-31T17:36:14;0.30;;;0.30;;
1328;SDS011;658;48.820;9.354;2023-03-31T17:40:15;0.70;;;0.60;;
1328;SDS011;658;48.820;9.354;2023-03-31T17:44:16;0.70;;;0.50;;
1328;SDS011;658;48.820;9.354;2023-03-31T17:48:17;0.80;;;0.50;;
1328;SDS011;658;48.820;9.354;2023-03-31T17:52:17;0.67;;;0.50;;
1328;SDS011;658;48.820;9.354;2023-03-31T17:56:21;0.77;;;0.40;;
1328;SDS011;658;48.820;9.354;2023-03-31T18:00:22;1.13;;;0.87;;
1328;SDS011;658;48.820;9.354;2023-03-31T18:04:23;0.60;;;0.57;;
1328;SDS011;658;48.820;9.354;2023-03-31T18:08:24;1.27;;;0.80;;
1328;SDS011;658;48.820;9.354;2023-03-31T18:12:27;1.17;;;0.40;;
1328;SDS011;658;48.820;9.354;2023-03-31T18:16:29;0.83;;;0.60;;
1328;SDS011;658;48.820;9.354;2023-03-31T18:20:30;1.03;;;0.80;;
1328;SDS011;658;48.820;9.354;2023-03-31T18:24:31;0.53;;;0.53;;
1328;SDS011;658;48.820;9.354;2023-03-31T18:28:33;0.90;;;0.43;;
1328;SDS011;658;48.820;9.354;2023-03-31T18:32:34;0.50;;;0.40;;
1328;SDS011;658;48.820;9.354;2023-03-31T18:36:35;0.83;;;0.60;;
1328;SDS011;658;48.820;9.354;2023-03-31T18:40:38;1.63;;;0.50;;
1328;SDS011;658;48.820;9.354;2023-03-31T18:44:47;0.67;;;0.50;;
1328;SDS011;658;48.820;9.354;2023-03-31T18:48:48;1.17;;;0.67;;
1328;SDS011;658;48.820;9.354;2023-03-31T18:52:49;1.60;;;0.70;;
1328;SDS011;658;48.820;9.354;2023-03-31T18:56:53;0.63;;;0.60;;
1328;SDS011;658;48.820;9.354;2023-03-31T19:00:54;0.90;;;0.57;;
1328;SDS011;658;48.820;9.354;2023-03-31T19:04:55;0.73;;;0.40;;
1328;SDS011;658;48.820;9.354;2023-03-31T19:08:55;1.00;;;0.40;;
1328;SDS011;658;48.820;9.354;2023-03-31T19:12:56;2.03;;;0.50;;
1328;SDS011;658;48.820;9.354;2023-03-31T19:16:57;1.00;;;0.70;;
1328;SDS011;658;48.820;9.354;2023-03-31T19:20:58;1.13;;;0.70;;
1328;SDS011;658;48.820;9.354;2023-03-31T19:24:59;1.40;;;0.60;;
1328;SDS011;658;48.820;9.354;2023-03-31T19:29:01;0.80;;;0.50;;
1328;SDS011;658;48.820;9.354;2023-03-31T19:33:03;1.47;;;0.73;;
1328;SDS011;658;48.820;9.354;2023-03-31T19:37:03;1.20;;;0.47;;
1328;SDS011;658;48.820;9.354;2023-03-31T19:41:05;0.77;;;0.47;;
1328;SDS011;658;48.820;9.354;2023-03-31T19:45:05;2.20;;;0.70;;
1328;SDS011;658;48.820;9.354;2023-03-31T19:49:09;2.37;;;0.80;;
1328;SDS011;658;48.820;9.354;2023-03-31T19:53:09;0.90;;;0.50;;
1328;SDS011;658;48.820;9.354;2023-03-31T19:57:10;5.17;;;0.80;;
1328;SDS011;658;48.820;9.354;2023-03-31T20:01:15;0.43;;;0.40;;
1328;SDS011;658;48.820;9.354;2023-03-31T20:05:20;0.63;;;0.40;;
1328;SDS011;658;48.820;9.354;2023-03-31T20:09:21;3.20;;;0.50;;
1328;SDS011;658;48.820;9.354;2023-03-31T20:13:21;2.10;;;1.27;;
1328;SDS011;658;48.820;9.354;2023-03-31T20:17:22;0.87;;;0.50;;
1328;SDS011;658;48.820;9.354;2023-03-31T20:21:24;1.70;;;0.70;;
1328;SDS011;658;48.820;9.354;2023-03-31T20:25:26;0.40;;;0.40;;
1328;SDS011;658;48.820;9.354;2023-03-31T20:29:27;1.03;;;0.40;;
1328;SDS011;658;48.820;9.354;2023-03-31T20:33:30;0.70;;;0.60;;
1328;SDS011;658;48.820;9.354;2023-03-31T20:37:31;0.90;;;0.70;;
1328;SDS011;658;48.820;9.354;2023-03-31T20:41:32;1.90;;;0.60;;
1328;SDS011;658;48.820;9.354;2023-03-31T20:45:36;0.97;;;0.50;;
1328;SDS011;658;48.820;9.354;2023-03-31T20:49:36;1.00;;;0.73;;
1328;SDS011;658;48.820;9.354;2023-03-31T20:53:37;1.10;;;0.50;;
1328;SDS011;658;48.820;9.354;2023-03-31T20:57:40;1.30;;;0.70;;
1328;SDS011;658;48.820;9.354;2023-03-31T21:01:41;2.20;;;0.60;;
1328;SDS011;658;48.820;9.354;2023-03-31T21:05:44;1.30;;;0.47;;
1328;SDS011;658;48.820;9.354;2023-03-31T21:09:46;0.80;;;0.50;;
1328;SDS011;658;48.820;9.354;2023-03-31T21:13:47;1.97;;;0.60;;
1328;SDS011;658;48.820;9.354;2023-03-31T21:17:48;0.80;;;0.40;;
1328;SDS011;658;48.820;9.354;2023-03-31T21:21:51;1.13;;;0.60;;
1328;SDS011;658;48.820;9.354;2023-03-31T21:25:52;2.93;;;0.60;;
1328;SDS011;658;48.820;9.354;2023-03-31T21:29:55;1.20;;;0.70;;
1328;SDS011;658;48.820;9.354;2023-03-31T21:33:56;1.17;;;0.40;;
1328;SDS011;658;48.820;9.354;2023-03-31T21:37:57;0.80;;;0.40;;
1328;SDS011;658;48.820;9.354;2023-03-31T21:41:58;0.47;;;0.47;;
1328;SDS011;658;48.820;9.354;2023-03-31T21:45:59;1.23;;;0.50;;
1328;SDS011;658;48.820;9.354;2023-03-31T21:50:00;0.73;;;0.50;;
1328;SDS011;658;48.820;9.354;2023-03-31T21:54:02;1.23;;;0.53;;
1328;SDS011;658;48.820;9.354;2023-03-31T21:58:06;1.13;;;0.43;;
1328;SDS011;658;48.820;9.354;2023-03-31T22:02:07;1.00;;;0.60;;
1328;SDS011;658;48.820;9.354;2023-03-31T22:06:07;0.70;;;0.60;;
1328;SDS011;658;48.820;9.354;2023-03-31T22:10:08;0.70;;;0.40;;
1328;SDS011;658;48.820;9.354;2023-03-31T22:14:09;2.17;;;0.60;;
1328;SDS011;658;48.820;9.354;2023-03-31T22:18:10;1.63;;;0.83;;
1328;SDS011;658;48.820;9.354;2023-03-31T22:22:11;0.53;;;0.53;;
1328;SDS011;658;48.820;9.354;2023-03-31T22:26:12;0.50;;;0.43;;
1328;SDS011;658;48.820;9.354;2023-03-31T22:30:12;0.73;;;0.47;;
1328;SDS011;658;48.820;9.354;2023-03-31T22:34:13;0.40;;;0.40;;
1328;SDS011;658;48.820;9.354;2023-03-31T22:38:15;0.50;;;0.50;;
1328;SDS011;658;48.820;9.354;2023-03-31T22:42:17;0.90;;;0.60;;
1328;SDS011;658;48.820;9.354;2023-03-31T22:46:20;0.77;;;0.50;;
1328;SDS011;658;48.820;9.354;2023-03-31T22:50:23;0.80;;;0.50;;
1328;SDS011;658;48.820;9.354;2023-03-31T22:54:24;2.40;;;0.93;;
1328;SDS011;658;48.820;9.354;2023-03-31T22:58:25;1.50;;;0.63;;
1328;SDS011;658;48.820;9.354;2023-03-31T23:02:25;0.50;;;0.50;;
1328;SDS011;658;48.820;9.354;2023-03-31T23:06:26;0.87;;;0.50;;
1328;SDS011;658;48.820;9.354;2023-03-31T23:10:28;0.50;;;0.37;;
1328;SDS011;658;48.820;9.354;2023-03-31T23:14:28;2.03;;;0.50;;
1328;SDS011;658;48.820;9.354;2023-03-31T23:18:29;0.63;;;0.40;;
1328;SDS011;658;48.820;9.354;2023-03-31T23:22:33;0.50;;;0.50;;
1328;SDS011;658;48.820;9.354;2023-03-31T23:26:33;1.13;;;0.50;;
1328;SDS011;658;48.820;9.354;2023-03-31T23:30:34;1.50;;;0.50;;
1328;SDS011;658;48.820;9.354;2023-03-31T23:34:35;0.60;;;0.60;;
1328;SDS011;658;48.820;9.354;2023-03-31T23:38:40;0.70;;;0.50;;
1328;SDS011;658;48.820;9.354;2023-03-31T23:42:43;0.80;;;0.43;;
1328;SDS011;658;48.820;9.354;2023-03-31T23:46:44;0.57;;;0.40;;
1328;SDS011;658;48.820;9.354;2023-03-31T23:50:44;1.13;;;0.40;;
1328;SDS011;658;48.820;9.354;2023-03-31T23:54:45;0.40;;;0.40;;
1328;SDS011;658;48.820;9.354;2023-03-31T23:58:46;0.70;;;0.47;;
